Time;durP1;ratioP1;P1;durP2;ratioP2;P2;SDS_P1;SDS_P2;PMS_P1;PMS_P2;Temp;Humidity;BMP_temperature;BMP_pressure;BME280_temperature;BME280_humidity;BME280_pressure;Samples;Min_cycle;Max_cycle;Signal;HPM_P1;HPM_P2
2022/04/22 00:02:21;;;;;;;;;11.67;11.67;;;;;;;;5037198;28;45496;-68
2022/04/22 00:04:47;;;;;;;;;14.00;14.00;;;;;;;;5037576;28;45365;-68
2022/04/22 00:07:12;;;;;;;;;17.00;16.00;;;;;;;;5036777;28;45382;-68
2022/04/22 00:09:37;;;;;;;;;17.00;13.00;;;;;;;;5036932;28;45438;-68
2022/04/22 00:12:03;;;;;;;;;16.00;14.67;;;;;;;;5040555;28;45416;-68
2022/04/22 00:14:28;;;;;;;;;15.67;14.00;;;;;;;;5040930;28;45369;-68
2022/04/22 00:16:53;;;;;;;;;15.67;15.67;;;;;;;;5040508;28;46771;-68
2022/04/22 00:19:19;;;;;;;;;21.67;17.00;;;;;;;;5040646;28;45264;-68
2022/04/22 00:21:47;;;;;;;;;14.33;12.67;;;;;;;;5040534;28;45424;-68
2022/04/22 00:24:12;;;;;;;;;14.67;12.67;;;;;;;;5041089;28;45386;-68
2022/04/22 00:26:37;;;;;;;;;12.00;12.00;;;;;;;;5040155;28;46503;-68
2022/04/22 00:29:02;;;;;;;;;17.00;17.00;;;;;;;;5040505;28;45362;-68
2022/04/22 00:31:28;;;;;;;;;12.00;12.00;;;;;;;;5040292;28;45293;-68
2022/04/22 00:33:54;;;;;;;;;15.33;15.33;;;;;;;;5040667;28;45276;-68
2022/04/22 00:36:19;;;;;;;;;15.67;15.33;;;;;;;;5022426;28;47613;-68
2022/04/22 00:38:44;;;;;;;;;16.00;14.33;;;;;;;;5040365;28;45421;-68
2022/04/22 00:41:09;;;;;;;;;18.67;17.67;;;;;;;;5040656;28;45235;-68
2022/04/22 00:43:50;;;;;;;;;16.67;14.00;;;;;;;;5040465;28;45386;-68
2022/04/22 00:46:15;;;;;;;;;15.00;14.67;;;;;;;;5040053;28;45542;-68
2022/04/22 00:48:41;;;;;;;;;16.67;15.67;;;;;;;;5040231;28;45455;-68
2022/04/22 00:51:07;;;;;;;;;17.00;15.33;;;;;;;;5040247;28;45314;-68
2022/04/22 00:53:39;;;;;;;;;16.33;15.00;;;;;;;;5040281;28;45798;-68
2022/04/22 00:56:05;;;;;;;;;19.67;18.33;;;;;;;;5039878;28;45472;-68
2022/04/22 00:58:31;;;;;;;;;19.33;18.00;;;;;;;;5039685;28;45411;-68
2022/04/22 01:00:56;;;;;;;;;22.67;18.00;;;;;;;;5039885;28;45366;-68
2022/04/22 01:03:22;;;;;;;;;16.00;15.33;;;;;;;;5040468;28;45346;-68
2022/04/22 01:11:17;;;;;;;;;17.00;16.33;;;;;;;;5039923;28;45321;-68
2022/04/22 01:13:43;;;;;;;;;20.00;17.00;;;;;;;;5039995;28;45550;-68
2022/04/22 01:16:08;;;;;;;;;18.33;18.00;;;;;;;;5039578;28;45318;-68
2022/04/22 01:18:33;;;;;;;;;19.33;19.00;;;;;;;;5039676;28;45220;-68
2022/04/22 01:21:01;;;;;;;;;13.67;13.67;;;;;;;;5039710;28;45206;-68
2022/04/22 01:23:27;;;;;;;;;14.00;14.00;;;;;;;;5038919;28;45323;-68
2022/04/22 01:25:53;;;;;;;;;16.33;16.00;;;;;;;;5039460;28;45337;-68
2022/04/22 01:28:18;;;;;;;;;14.00;13.33;;;;;;;;5039462;28;45432;-68
2022/04/22 01:30:44;;;;;;;;;18.00;18.00;;;;;;;;5039800;28;45566;-68
2022/04/22 01:33:09;;;;;;;;;23.00;17.33;;;;;;;;5039637;28;45265;-68
2022/04/22 01:35:34;;;;;;;;;18.00;16.33;;;;;;;;5039357;28;45362;-68
2022/04/22 01:37:59;;;;;;;;;22.00;17.67;;;;;;;;5038667;28;45430;-68
2022/04/22 01:40:25;;;;;;;;;20.33;18.67;;;;;;;;5039426;28;45319;-68
2022/04/22 01:42:50;;;;;;;;;15.33;13.00;;;;;;;;5039621;28;45306;-68
2022/04/22 01:45:15;;;;;;;;;19.67;16.33;;;;;;;;5039268;28;45709;-68
2022/04/22 01:47:40;;;;;;;;;17.67;16.33;;;;;;;;5038977;28;45326;-68
2022/04/22 01:50:07;;;;;;;;;19.00;17.00;;;;;;;;5039365;28;45695;-68
2022/04/22 01:52:32;;;;;;;;;16.67;16.00;;;;;;;;5039468;28;45294;-68
2022/04/22 01:54:57;;;;;;;;;17.00;14.33;;;;;;;;5038787;28;45528;-69
2022/04/22 01:57:22;;;;;;;;;19.67;14.33;;;;;;;;5039017;28;45330;-68
2022/04/22 01:59:48;;;;;;;;;19.00;17.33;;;;;;;;5038986;28;45349;-68
2022/04/22 02:02:14;;;;;;;;;20.00;18.00;;;;;;;;5039073;28;45395;-68
2022/04/22 02:04:40;;;;;;;;;19.00;15.00;;;;;;;;5038794;28;46984;-68
2022/04/22 02:07:05;;;;;;;;;20.00;17.00;;;;;;;;5039078;28;46145;-68
2022/04/22 02:09:30;;;;;;;;;13.33;12.67;;;;;;;;5038845;28;45493;-68
2022/04/22 02:11:58;;;;;;;;;18.67;18.00;;;;;;;;5039272;28;45291;-68
2022/04/22 02:14:25;;;;;;;;;17.33;15.33;;;;;;;;5038916;28;45703;-68
2022/04/22 02:16:50;;;;;;;;;20.00;14.00;;;;;;;;5038534;28;45407;-68
2022/04/22 02:19:16;;;;;;;;;15.00;14.33;;;;;;;;5039010;28;45239;-68
2022/04/22 02:21:41;;;;;;;;;16.00;13.00;;;;;;;;5038818;28;45318;-68
2022/04/22 02:24:06;;;;;;;;;17.33;16.33;;;;;;;;5038509;28;46187;-68
2022/04/22 02:28:31;;;;;;;;;15.00;13.33;;;;;;;;5038409;28;45279;-68
2022/04/22 02:29:17;;;;;;;;;17.67;16.00;;;;;;;;5038773;28;45361;-68
2022/04/22 02:31:43;;;;;;;;;14.67;14.00;;;;;;;;5038697;28;45342;-68
2022/04/22 02:34:08;;;;;;;;;15.00;14.00;;;;;;;;5038052;28;45466;-68
2022/04/22 02:36:34;;;;;;;;;15.67;14.00;;;;;;;;5038390;28;45351;-68
2022/04/22 02:38:59;;;;;;;;;14.00;13.67;;;;;;;;5038512;28;45285;-68
2022/04/22 02:46:59;;;;;;;;;16.00;14.00;;;;;;;;5038038;28;45417;-68
2022/04/22 02:49:24;;;;;;;;;18.33;16.33;;;;;;;;5038367;28;45382;-68
2022/04/22 02:51:51;;;;;;;;;14.00;14.00;;;;;;;;5038799;28;45319;-68
2022/04/22 02:54:16;;;;;;;;;16.33;15.00;;;;;;;;5038009;28;45383;-68
2022/04/22 02:56:42;;;;;;;;;15.67;15.67;;;;;;;;5037854;28;45421;-68
2022/04/22 02:59:08;;;;;;;;;18.67;15.33;;;;;;;;5038448;28;45401;-68
2022/04/22 03:01:33;;;;;;;;;16.00;11.33;;;;;;;;5038286;28;45385;-68
2022/04/22 03:03:59;;;;;;;;;16.00;16.00;;;;;;;;5038021;28;46325;-68
2022/04/22 03:06:26;;;;;;;;;15.67;12.00;;;;;;;;5037737;28;45290;-68
2022/04/22 03:08:51;;;;;;;;;20.67;16.00;;;;;;;;5037945;28;45368;-68
2022/04/22 03:11:21;;;;;;;;;16.67;14.67;;;;;;;;5038253;28;45399;-68
2022/04/22 03:13:47;;;;;;;;;15.00;15.00;;;;;;;;5037722;28;46438;-68
2022/04/22 03:16:12;;;;;;;;;19.67;17.33;;;;;;;;5037928;28;45332;-68
2022/04/22 03:18:37;;;;;;;;;16.67;13.00;;;;;;;;5037747;28;45484;-68
2022/04/22 03:21:02;;;;;;;;;17.00;13.33;;;;;;;;5038013;28;45434;-68
2022/04/22 03:23:27;;;;;;;;;20.33;15.67;;;;;;;;5037756;28;45365;-68
2022/04/22 03:25:54;;;;;;;;;14.00;14.00;;;;;;;;5037611;28;45409;-68
2022/04/22 03:28:20;;;;;;;;;18.00;16.00;;;;;;;;5038033;28;45310;-68
2022/04/22 03:30:45;;;;;;;;;15.00;14.67;;;;;;;;5037806;28;45378;-68
2022/04/22 03:33:10;;;;;;;;;11.00;11.00;;;;;;;;5037196;28;45250;-68
2022/04/22 03:35:35;;;;;;;;;16.00;13.33;;;;;;;;5037694;28;45390;-68
2022/04/22 03:38:00;;;;;;;;;17.67;14.67;;;;;;;;5037475;28;45299;-68
2022/04/22 03:40:26;;;;;;;;;20.00;16.00;;;;;;;;5038041;28;45485;-68
2022/04/22 03:42:52;;;;;;;;;15.33;9.00;;;;;;;;5037127;28;46366;-68
2022/04/22 03:45:18;;;;;;;;;18.00;16.00;;;;;;;;5036456;28;45211;-68
2022/04/22 03:47:43;;;;;;;;;17.67;15.33;;;;;;;;5037400;28;45695;-68
2022/04/22 03:50:08;;;;;;;;;19.33;13.67;;;;;;;;5037647;28;45548;-68
2022/04/22 03:52:34;;;;;;;;;19.33;15.00;;;;;;;;5037443;28;45409;-68
2022/04/22 03:54:59;;;;;;;;;17.00;14.67;;;;;;;;5037075;28;45400;-68
2022/04/22 04:00:08;;;;;;;;;18.67;17.33;;;;;;;;5037629;28;45326;-68
2022/04/22 04:02:35;;;;;;;;;23.00;20.33;;;;;;;;5036588;28;46342;-68
2022/04/22 04:05:00;;;;;;;;;14.67;14.00;;;;;;;;5036980;28;45495;-68
2022/04/22 04:07:26;;;;;;;;;21.00;17.67;;;;;;;;5037310;28;45366;-68
2022/04/22 04:18:02;;;;;;;;;23.67;21.33;;;;;;;;5037034;28;45282;-68
2022/04/22 04:23:14;;;;;;;;;18.00;15.00;;;;;;;;5036889;28;45897;-68
2022/04/22 04:25:40;;;;;;;;;14.33;14.33;;;;;;;;5036658;28;45509;-68
2022/04/22 04:28:06;;;;;;;;;21.00;19.00;;;;;;;;5037138;28;45398;-68
2022/04/22 04:30:31;;;;;;;;;19.00;17.00;;;;;;;;5036879;28;45415;-68
2022/04/22 04:32:56;;;;;;;;;16.33;14.33;;;;;;;;5036313;28;46248;-68
2022/04/22 04:35:22;;;;;;;;;20.67;18.00;;;;;;;;5036827;28;45377;-68
2022/04/22 04:37:47;;;;;;;;;20.00;13.67;;;;;;;;5037134;28;45304;-68
2022/04/22 04:40:12;;;;;;;;;21.00;18.67;;;;;;;;5037196;28;45298;-68
2022/04/22 04:42:37;;;;;;;;;17.33;15.67;;;;;;;;5036483;28;45425;-68
2022/04/22 04:45:03;;;;;;;;;21.67;17.00;;;;;;;;5036525;28;45412;-68
2022/04/22 04:47:29;;;;;;;;;18.33;16.67;;;;;;;;5036542;28;45326;-68
2022/04/22 04:49:54;;;;;;;;;22.00;16.67;;;;;;;;5036982;28;45315;-68
2022/04/22 04:52:20;;;;;;;;;17.67;16.33;;;;;;;;5036497;28;46522;-68
2022/04/22 04:54:46;;;;;;;;;19.33;16.33;;;;;;;;5036400;28;45458;-68
2022/04/22 04:57:11;;;;;;;;;18.67;18.67;;;;;;;;5038421;28;45480;-68
2022/04/22 04:59:37;;;;;;;;;23.67;20.33;;;;;;;;5040295;28;45276;-68
2022/04/22 05:02:02;;;;;;;;;25.33;20.33;;;;;;;;5039553;28;45461;-68
2022/04/22 05:04:27;;;;;;;;;22.00;20.67;;;;;;;;5039703;28;45433;-68
2022/04/22 05:06:52;;;;;;;;;21.67;19.33;;;;;;;;5039972;28;45506;-68
2022/04/22 05:09:17;;;;;;;;;23.00;21.67;;;;;;;;5040216;28;45278;-68
2022/04/22 05:11:43;;;;;;;;;24.33;23.33;;;;;;;;5039981;28;45765;-68
2022/04/22 05:14:08;;;;;;;;;23.67;22.67;;;;;;;;5039806;28;45259;-68
2022/04/22 05:16:33;;;;;;;;;25.00;20.00;;;;;;;;5040053;28;45246;-68
2022/04/22 05:18:58;;;;;;;;;25.67;24.33;;;;;;;;5039822;28;45444;-68
2022/04/22 05:21:24;;;;;;;;;25.67;21.33;;;;;;;;5039464;28;45624;-68
2022/04/22 05:23:49;;;;;;;;;27.00;23.00;;;;;;;;5039581;28;45445;-68
2022/04/22 05:26:14;;;;;;;;;27.00;23.33;;;;;;;;5039520;28;45353;-68
2022/04/22 05:28:39;;;;;;;;;21.00;19.67;;;;;;;;5040066;28;45409;-68
2022/04/22 05:33:48;;;;;;;;;25.00;22.67;;;;;;;;5058926;28;45497;-68
2022/04/22 05:36:13;;;;;;;;;23.67;22.67;;;;;;;;5058563;28;45222;-68
2022/04/22 05:38:39;;;;;;;;;23.00;22.00;;;;;;;;5039061;28;45651;-68
2022/04/22 05:41:04;;;;;;;;;29.00;25.00;;;;;;;;5038620;28;45434;-68
2022/04/22 05:43:30;;;;;;;;;20.00;18.00;;;;;;;;5029349;28;45515;-68
2022/04/22 05:45:55;;;;;;;;;29.67;23.00;;;;;;;;5030229;28;45402;-68
2022/04/22 05:48:20;;;;;;;;;26.00;23.67;;;;;;;;5019178;28;45618;-68
2022/04/22 05:50:45;;;;;;;;;26.00;24.33;;;;;;;;5019039;28;45467;-68
2022/04/22 05:53:11;;;;;;;;;28.33;26.00;;;;;;;;5019029;28;45462;-68
2022/04/22 05:55:36;;;;;;;;;28.00;24.33;;;;;;;;5018958;28;45333;-68
2022/04/22 05:58:02;;;;;;;;;26.00;22.00;;;;;;;;5019143;28;45402;-68
2022/04/22 06:00:30;;;;;;;;;29.00;26.33;;;;;;;;5018796;28;45492;-68
2022/04/22 06:02:58;;;;;;;;;23.33;21.67;;;;;;;;5018701;28;45324;-68
2022/04/22 06:05:23;;;;;;;;;27.33;26.33;;;;;;;;5019042;28;45382;-68
2022/04/22 06:10:31;;;;;;;;;33.00;25.33;;;;;;;;5018471;28;45494;-68
2022/04/22 06:10:37;;;;;;;;;28.33;26.00;;;;;;;;5018025;28;46045;-68
2022/04/22 06:13:03;;;;;;;;;34.50;28.00;;;;;;;;5018351;28;45425;-68
2022/04/22 06:15:28;;;;;;;;;27.67;24.67;;;;;;;;5018907;28;45351;-68
2022/04/22 06:17:54;;;;;;;;;27.33;23.00;;;;;;;;5018837;28;45365;-68
2022/04/22 06:20:19;;;;;;;;;28.33;24.67;;;;;;;;5018417;28;45320;-68
2022/04/22 06:22:44;;;;;;;;;32.00;30.33;;;;;;;;5018568;28;45369;-68
2022/04/22 06:25:10;;;;;;;;;33.00;26.67;;;;;;;;5018694;28;45332;-68
2022/04/22 06:27:39;;;;;;;;;26.67;24.33;;;;;;;;5018724;28;45451;-68
2022/04/22 06:30:05;;;;;;;;;34.00;27.67;;;;;;;;5018343;28;46674;-68
2022/04/22 06:32:30;;;;;;;;;27.67;27.67;;;;;;;;5018197;28;45497;-68
2022/04/22 06:34:56;;;;;;;;;35.33;30.00;;;;;;;;5018460;28;45459;-68
2022/04/22 06:37:21;;;;;;;;;32.67;29.33;;;;;;;;5018557;28;45326;-68
2022/04/22 06:47:58;;;;;;;;;34.33;28.67;;;;;;;;5018387;28;45280;-68
2022/04/22 06:50:24;;;;;;;;;35.33;30.67;;;;;;;;5017086;28;46676;-68
2022/04/22 06:52:49;;;;;;;;;27.67;27.33;;;;;;;;5017999;28;45769;-68
2022/04/22 06:55:15;;;;;;;;;36.33;27.33;;;;;;;;5017492;28;45527;-68
2022/04/22 06:57:40;;;;;;;;;30.00;27.33;;;;;;;;5017651;28;45495;-68
2022/04/22 07:00:07;;;;;;;;;34.33;31.00;;;;;;;;5017915;28;46103;-68
2022/04/22 07:02:32;;;;;;;;;29.33;26.33;;;;;;;;5017453;28;45334;-68
2022/04/22 07:04:57;;;;;;;;;30.00;29.00;;;;;;;;5017913;28;45303;-68
2022/04/22 07:07:23;;;;;;;;;27.00;25.00;;;;;;;;5018039;28;45378;-71
2022/04/22 07:09:48;;;;;;;;;28.33;28.33;;;;;;;;5032862;28;47270;-69
2022/04/22 07:12:15;;;;;;;;;31.00;26.67;;;;;;;;5018092;28;45293;-69
2022/04/22 07:14:41;;;;;;;;;34.00;30.00;;;;;;;;5017690;28;45470;-69
2022/04/22 07:17:08;;;;;;;;;27.67;24.00;;;;;;;;5018228;28;45164;-69
2022/04/22 07:19:34;;;;;;;;;33.67;30.00;;;;;;;;5016701;28;45705;-69
2022/04/22 07:21:59;;;;;;;;;29.00;29.00;;;;;;;;5017034;28;45299;-69
2022/04/22 07:24:24;;;;;;;;;31.67;29.67;;;;;;;;5017708;28;45477;-69
2022/04/22 07:26:52;;;;;;;;;33.67;29.33;;;;;;;;5032930;28;45408;-69
2022/04/22 07:29:18;;;;;;;;;26.33;23.67;;;;;;;;5017456;28;46249;-69
2022/04/22 07:31:43;;;;;;;;;29.00;25.67;;;;;;;;5017298;28;45398;-69
2022/04/22 07:34:09;;;;;;;;;31.33;30.67;;;;;;;;5017368;28;45503;-69
2022/04/22 07:36:35;;;;;;;;;30.67;26.00;;;;;;;;5017739;28;45232;-69
2022/04/22 07:39:00;;;;;;;;;29.00;27.33;;;;;;;;5017249;28;45709;-70
2022/04/22 07:41:28;;;;;;;;;29.00;27.33;;;;;;;;5017641;28;45377;-69
2022/04/22 07:46:57;;;;;;;;;32.00;28.67;;;;;;;;5017419;28;45415;-69
2022/04/22 07:49:23;;;;;;;;;29.67;27.00;;;;;;;;5017101;28;45280;-69
2022/04/22 07:51:49;;;;;;;;;34.33;29.33;;;;;;;;5016964;28;45363;-68
2022/04/22 07:54:15;;;;;;;;;28.00;25.67;;;;;;;;5016909;28;45453;-69
2022/04/22 07:56:41;;;;;;;;;23.67;23.33;;;;;;;;5016707;28;45421;-70
2022/04/22 07:59:07;;;;;;;;;26.33;23.33;;;;;;;;5016632;28;45744;-69
2022/04/22 08:01:32;;;;;;;;;28.67;25.00;;;;;;;;5016550;28;45480;-69
2022/04/22 08:03:59;;;;;;;;;31.33;24.00;;;;;;;;5016844;28;45424;-69
2022/04/22 08:06:24;;;;;;;;;34.67;28.67;;;;;;;;5017116;28;45370;-69
2022/04/22 08:08:49;;;;;;;;;25.67;20.33;;;;;;;;5016779;28;45390;-69
2022/04/22 08:11:15;;;;;;;;;24.00;22.67;;;;;;;;5017093;28;45387;-69
2022/04/22 08:13:41;;;;;;;;;30.67;26.33;;;;;;;;5017081;28;45303;-69
2022/04/22 08:16:06;;;;;;;;;26.00;24.33;;;;;;;;5017270;28;45269;-70
2022/04/22 08:18:32;;;;;;;;;25.00;21.33;;;;;;;;5016754;28;45320;-69
2022/04/22 08:20:57;;;;;;;;;25.33;20.33;;;;;;;;5016450;28;45216;-69
2022/04/22 08:23:22;;;;;;;;;26.33;24.67;;;;;;;;5017141;28;45233;-70
2022/04/22 08:25:48;;;;;;;;;24.67;22.33;;;;;;;;5016588;28;45359;-69
2022/04/22 08:28:13;;;;;;;;;36.00;28.33;;;;;;;;5016620;28;46367;-69
2022/04/22 08:30:38;;;;;;;;;32.00;25.33;;;;;;;;5016711;28;45661;-69
2022/04/22 08:33:03;;;;;;;;;33.00;28.00;;;;;;;;5019976;28;45350;-69
2022/04/22 08:35:29;;;;;;;;;26.67;23.33;;;;;;;;5020577;28;45421;-69
2022/04/22 08:37:54;;;;;;;;;25.33;21.33;;;;;;;;5037009;28;46265;-69
2022/04/22 08:40:19;;;;;;;;;26.33;15.67;;;;;;;;5040261;28;45593;-69
2022/04/22 08:42:47;;;;;;;;;25.00;20.67;;;;;;;;5039797;28;45356;-69
2022/04/22 08:45:12;;;;;;;;;28.67;25.33;;;;;;;;5040097;28;45369;-69
2022/04/22 08:50:23;;;;;;;;;27.67;25.67;;;;;;;;5039613;28;45348;-69
2022/04/22 08:53:04;;;;;;;;;25.67;25.33;;;;;;;;5040017;28;45338;-69
2022/04/22 08:55:30;;;;;;;;;28.33;25.33;;;;;;;;5040248;28;45640;-69
2022/04/22 08:57:55;;;;;;;;;28.00;23.33;;;;;;;;5039592;28;46296;-69
2022/04/22 09:00:24;;;;;;;;;28.67;26.67;;;;;;;;5039070;28;45416;-69
2022/04/22 09:02:54;;;;;;;;;28.33;26.33;;;;;;;;5039758;28;45399;-69
2022/04/22 09:05:19;;;;;;;;;29.00;25.67;;;;;;;;5039871;28;45517;-69
2022/04/22 09:07:45;;;;;;;;;33.67;28.33;;;;;;;;5039284;28;45747;-69
2022/04/22 09:10:11;;;;;;;;;28.67;26.00;;;;;;;;5039518;28;45367;-69
2022/04/22 09:12:37;;;;;;;;;33.33;28.33;;;;;;;;5039248;28;45354;-69
2022/04/22 09:15:02;;;;;;;;;31.00;25.67;;;;;;;;5039554;28;45450;-69
2022/04/22 09:17:28;;;;;;;;;26.67;22.67;;;;;;;;5039171;28;45386;-69
2022/04/22 09:19:55;;;;;;;;;24.33;23.33;;;;;;;;5038961;28;45467;-69
2022/04/22 09:22:20;;;;;;;;;26.00;22.67;;;;;;;;5039339;28;45270;-69
2022/04/22 09:24:55;;;;;;;;;25.33;21.00;;;;;;;;5039562;28;45496;-69
2022/04/22 09:27:32;;;;;;;;;29.33;24.67;;;;;;;;5038860;28;47117;-69
2022/04/22 09:29:58;;;;;;;;;28.00;24.00;;;;;;;;5038870;28;45461;-69
2022/04/22 09:32:27;;;;;;;;;28.33;26.00;;;;;;;;5039341;28;45250;-69
2022/04/22 09:35:13;;;;;;;;;28.67;23.67;;;;;;;;5021250;28;45254;-69
2022/04/22 09:43:20;;;;;;;;;27.33;25.33;;;;;;;;5037810;28;45353;-69
2022/04/22 09:45:46;;;;;;;;;30.33;25.00;;;;;;;;5039150;28;45405;-69
2022/04/22 09:48:13;;;;;;;;;30.00;26.33;;;;;;;;5039098;28;45511;-69
2022/04/22 09:50:52;;;;;;;;;34.00;27.00;;;;;;;;5038956;28;45335;-69
2022/04/22 09:53:17;;;;;;;;;31.00;27.67;;;;;;;;5039008;28;45447;-67
2022/04/22 09:55:47;;;;;;;;;22.00;21.00;;;;;;;;5039078;28;45428;-67
2022/04/22 09:58:12;;;;;;;;;28.00;24.33;;;;;;;;5038520;28;46297;-67
2022/04/22 10:00:38;;;;;;;;;35.00;29.67;;;;;;;;5038740;28;45357;-67
2022/04/22 10:03:07;;;;;;;;;25.00;24.33;;;;;;;;5038893;28;45242;-69
2022/04/22 10:05:33;;;;;;;;;26.00;23.33;;;;;;;;5038928;28;45370;-67
2022/04/22 10:08:01;;;;;;;;;26.67;25.67;;;;;;;;5038738;28;45335;-67
2022/04/22 10:10:30;;;;;;;;;22.67;22.00;;;;;;;;5038601;28;45295;-67
2022/04/22 10:12:59;;;;;;;;;25.33;24.33;;;;;;;;5038735;28;45358;-67
2022/04/22 10:15:29;;;;;;;;;25.33;24.00;;;;;;;;5020965;28;45523;-67
2022/04/22 10:17:54;;;;;;;;;25.00;22.67;;;;;;;;5038319;28;45462;-68
2022/04/22 10:20:20;;;;;;;;;21.67;21.33;;;;;;;;5038132;28;45394;-67
2022/04/22 10:22:49;;;;;;;;;23.67;23.67;;;;;;;;5038651;28;45476;-67
2022/04/22 10:25:14;;;;;;;;;25.00;24.00;;;;;;;;5038730;28;45314;-67
2022/04/22 10:27:40;;;;;;;;;30.67;27.67;;;;;;;;5038243;28;46305;-66
2022/04/22 10:30:08;;;;;;;;;29.67;26.67;;;;;;;;5038131;28;45305;-69
2022/04/22 10:32:35;;;;;;;;;24.00;23.67;;;;;;;;5038020;28;45249;-67
2022/04/22 10:35:01;;;;;;;;;25.67;25.67;;;;;;;;5038116;28;45309;-67
2022/04/22 10:37:27;;;;;;;;;26.00;26.00;;;;;;;;5038115;28;47368;-67
2022/04/22 10:39:59;;;;;;;;;22.33;22.33;;;;;;;;5038137;28;45369;-67
2022/04/22 10:42:30;;;;;;;;;23.67;23.67;;;;;;;;5038579;28;45501;-68
2022/04/22 10:47:46;;;;;;;;;26.00;23.33;;;;;;;;5037873;28;45266;-68
2022/04/22 10:50:30;;;;;;;;;28.33;26.00;;;;;;;;5037695;28;45365;-67
2022/04/22 10:53:03;;;;;;;;;25.33;24.00;;;;;;;;5038105;28;45431;-68
2022/04/22 10:55:33;;;;;;;;;27.00;24.33;;;;;;;;5037975;28;45386;-67
2022/04/22 10:58:11;;;;;;;;;25.33;25.00;;;;;;;;5037463;28;45402;-67
2022/04/22 11:00:36;;;;;;;;;23.00;21.67;;;;;;;;5037651;28;45259;-69
2022/04/22 11:03:03;;;;;;;;;29.00;28.00;;;;;;;;5038048;28;45295;-68
2022/04/22 11:05:31;;;;;;;;;34.33;30.33;;;;;;;;5037703;28;45645;-67
2022/04/22 11:07:57;;;;;;;;;35.00;30.33;;;;;;;;5037561;28;45774;-67
2022/04/22 11:10:48;;;;;;;;;27.33;26.00;;;;;;;;5037666;28;45349;-67
2022/04/22 11:13:26;;;;;;;;;28.33;27.33;;;;;;;;4989618;28;45355;-67
2022/04/22 11:15:51;;;;;;;;;24.33;23.33;;;;;;;;5038032;28;45421;-69
2022/04/22 11:18:17;;;;;;;;;26.00;24.00;;;;;;;;5037407;28;46548;-69
2022/04/22 11:20:43;;;;;;;;;33.67;29.00;;;;;;;;5037647;28;45255;-69
2022/04/22 11:23:15;;;;;;;;;23.00;22.67;;;;;;;;5037278;28;45409;-68
2022/04/22 11:25:41;;;;;;;;;33.00;29.00;;;;;;;;5021177;28;45373;-69
2022/04/22 11:28:07;;;;;;;;;25.67;24.67;;;;;;;;5037024;28;45580;-69
2022/04/22 11:30:33;;;;;;;;;33.33;27.33;;;;;;;;5037139;28;45390;-69
2022/04/22 11:33:16;;;;;;;;;17.00;17.00;;;;;;;;5037463;28;45792;-69
2022/04/22 11:35:41;;;;;;;;;31.67;26.67;;;;;;;;5037726;28;45795;-69
2022/04/22 11:38:07;;;;;;;;;29.33;28.67;;;;;;;;5037097;28;46122;-69
2022/04/22 11:40:35;;;;;;;;;26.67;26.00;;;;;;;;5037267;28;45400;-69
2022/04/22 11:43:08;;;;;;;;;20.67;19.67;;;;;;;;5037376;28;46114;-67
2022/04/22 11:45:37;;;;;;;;;25.67;24.00;;;;;;;;5037420;28;45278;-67
2022/04/22 11:48:09;;;;;;;;;26.67;26.67;;;;;;;;5036116;28;45852;-67
2022/04/22 11:50:44;;;;;;;;;29.00;23.67;;;;;;;;5036704;28;45400;-66
2022/04/22 11:53:19;;;;;;;;;27.33;24.33;;;;;;;;5036786;28;45562;-66
2022/04/22 11:55:45;;;;;;;;;23.33;23.33;;;;;;;;5036857;28;45319;-67
2022/04/22 11:58:17;;;;;;;;;23.00;19.67;;;;;;;;5037082;28;46098;-69
2022/04/22 12:06:15;;;;;;;;;32.33;26.67;;;;;;;;5036463;28;45348;-67
2022/04/22 12:08:53;;;;;;;;;20.33;20.33;;;;;;;;5036871;28;46366;-69
2022/04/22 12:11:18;;;;;;;;;21.00;21.00;;;;;;;;5037205;28;45389;-69
2022/04/22 12:13:50;;;;;;;;;25.33;24.00;;;;;;;;5037011;28;45294;-69
2022/04/22 12:16:19;;;;;;;;;27.33;25.67;;;;;;;;5037307;28;45403;-69
2022/04/22 12:18:48;;;;;;;;;30.33;24.00;;;;;;;;5036821;28;45553;-68
2022/04/22 12:21:14;;;;;;;;;25.00;25.00;;;;;;;;5036471;28;45441;-69
2022/04/22 12:23:40;;;;;;;;;21.00;18.00;;;;;;;;5037193;28;45394;-67
2022/04/22 12:26:06;;;;;;;;;22.33;22.33;;;;;;;;5037161;28;45598;-69
2022/04/22 12:28:31;;;;;;;;;24.00;20.00;;;;;;;;5036454;28;46421;-67
2022/04/22 12:30:57;;;;;;;;;23.33;20.67;;;;;;;;5036836;28;45311;-69
2022/04/22 12:33:24;;;;;;;;;24.00;21.67;;;;;;;;5036801;28;45247;-69
2022/04/22 12:36:00;;;;;;;;;25.33;23.33;;;;;;;;5036707;28;45252;-69
2022/04/22 12:38:25;;;;;;;;;25.00;23.33;;;;;;;;5036688;28;45331;-69
2022/04/22 12:40:50;;;;;;;;;22.33;21.67;;;;;;;;5036374;28;45402;-69
2022/04/22 12:43:27;;;;;;;;;31.00;26.33;;;;;;;;5036787;28;45365;-67
2022/04/22 12:54:09;;;;;;;;;22.67;22.33;;;;;;;;5036372;28;45438;-69
2022/04/22 12:56:34;;;;;;;;;27.67;23.00;;;;;;;;5034620;28;45491;-69
2022/04/22 12:59:00;;;;;;;;;32.00;25.33;;;;;;;;5036191;28;46439;-68
2022/04/22 13:01:27;;;;;;;;;27.00;22.67;;;;;;;;5036264;28;45657;-69
2022/04/22 13:03:53;;;;;;;;;24.00;21.33;;;;;;;;5036000;28;45337;-69
2022/04/22 13:06:37;;;;;;;;;28.67;24.00;;;;;;;;5036167;28;45342;-69
2022/04/22 13:09:03;;;;;;;;;19.00;19.00;;;;;;;;5018362;28;48313;-69
2022/04/22 13:11:28;;;;;;;;;18.67;15.33;;;;;;;;5036192;28;45358;-69
2022/04/22 13:13:53;;;;;;;;;23.67;20.67;;;;;;;;5036556;28;45248;-69
2022/04/22 13:16:18;;;;;;;;;24.67;19.00;;;;;;;;5036624;28;45521;-69
2022/04/22 13:18:44;;;;;;;;;17.67;15.67;;;;;;;;5037202;28;46115;-69
2022/04/22 13:21:09;;;;;;;;;21.67;16.67;;;;;;;;5039742;28;45656;-69
2022/04/22 13:23:36;;;;;;;;;18.00;14.00;;;;;;;;5039429;28;45246;-69
2022/04/22 13:26:01;;;;;;;;;14.67;12.67;;;;;;;;5039972;28;45335;-69
2022/04/22 13:28:26;;;;;;;;;15.00;14.67;;;;;;;;5039168;28;45321;-69
2022/04/22 13:30:52;;;;;;;;;20.00;18.00;;;;;;;;5037688;28;45405;-69
2022/04/22 13:33:17;;;;;;;;;18.67;18.67;;;;;;;;5039165;28;45321;-69
2022/04/22 13:35:42;;;;;;;;;13.67;13.67;;;;;;;;5039081;28;45377;-69
2022/04/22 13:38:08;;;;;;;;;20.33;17.00;;;;;;;;5038867;28;45383;-69
2022/04/22 13:40:33;;;;;;;;;22.00;20.67;;;;;;;;5039099;28;45392;-69
2022/04/22 13:42:58;;;;;;;;;20.00;19.67;;;;;;;;5038946;28;45408;-67
2022/04/22 13:53:35;;;;;;;;;22.00;20.33;;;;;;;;5038910;28;45552;-67
2022/04/22 13:56:00;;;;;;;;;18.33;15.67;;;;;;;;5039116;28;45753;-67
2022/04/22 13:58:26;;;;;;;;;22.33;18.33;;;;;;;;5038627;28;47147;-66
2022/04/22 14:00:52;;;;;;;;;21.67;20.33;;;;;;;;5038590;28;45379;-67
2022/04/22 14:03:19;;;;;;;;;22.33;20.67;;;;;;;;5039105;28;45760;-67
2022/04/22 14:05:45;;;;;;;;;20.67;19.33;;;;;;;;5038567;28;45370;-67
2022/04/22 14:08:10;;;;;;;;;26.67;24.00;;;;;;;;5038510;28;46143;-67
2022/04/22 14:10:35;;;;;;;;;23.67;21.33;;;;;;;;5038696;28;45437;-67
2022/04/22 14:13:00;;;;;;;;;23.67;22.67;;;;;;;;5038729;28;45267;-67
2022/04/22 14:15:26;;;;;;;;;24.33;22.33;;;;;;;;5039087;28;45349;-67
2022/04/22 14:17:52;;;;;;;;;29.67;29.00;;;;;;;;5020672;28;47305;-67
2022/04/22 14:20:17;;;;;;;;;29.00;24.33;;;;;;;;5038582;28;45259;-67
2022/04/22 14:22:42;;;;;;;;;30.33;25.33;;;;;;;;5038475;28;45361;-67
2022/04/22 14:25:08;;;;;;;;;26.00;22.00;;;;;;;;5038564;28;45337;-67
2022/04/22 14:27:33;;;;;;;;;33.00;25.33;;;;;;;;5038455;28;45437;-67
2022/04/22 14:29:58;;;;;;;;;30.67;28.00;;;;;;;;5037700;28;45378;-67
2022/04/22 14:32:24;;;;;;;;;32.67;27.33;;;;;;;;5038307;28;45191;-67
2022/04/22 14:34:50;;;;;;;;;29.67;26.00;;;;;;;;5038365;28;45255;-69
2022/04/22 14:37:15;;;;;;;;;26.00;26.00;;;;;;;;5037963;28;46402;-67
2022/04/22 14:39:41;;;;;;;;;29.67;26.67;;;;;;;;5038449;28;45303;-67
2022/04/22 14:42:07;;;;;;;;;27.67;25.67;;;;;;;;5038190;28;45719;-67
2022/04/22 14:44:32;;;;;;;;;44.00;31.00;;;;;;;;5038125;28;45353;-68
2022/04/22 14:46:58;;;;;;;;;25.67;23.33;;;;;;;;5038027;28;46450;-67
2022/04/22 14:49:23;;;;;;;;;25.33;24.33;;;;;;;;5037694;28;45378;-67
2022/04/22 14:51:50;;;;;;;;;35.00;28.67;;;;;;;;5038289;28;45326;-67
2022/04/22 14:54:15;;;;;;;;;31.33;28.00;;;;;;;;5038286;28;45377;-67
2022/04/22 14:56:40;;;;;;;;;31.00;25.33;;;;;;;;5037218;28;45320;-67
2022/04/22 14:59:06;;;;;;;;;34.00;27.67;;;;;;;;5037489;28;45622;-67
2022/04/22 15:01:32;;;;;;;;;21.67;20.67;;;;;;;;5037718;28;45375;-67
2022/04/22 15:03:57;;;;;;;;;23.33;23.33;;;;;;;;5038357;28;45449;-67
2022/04/22 15:06:23;;;;;;;;;23.33;19.33;;;;;;;;5037482;28;46294;-67
2022/04/22 15:08:48;;;;;;;;;22.67;21.00;;;;;;;;5037554;28;45306;-69
2022/04/22 15:11:15;;;;;;;;;26.00;24.00;;;;;;;;5037436;28;45303;-67
2022/04/22 15:13:40;;;;;;;;;24.67;22.67;;;;;;;;5037741;28;45469;-67
2022/04/22 15:16:05;;;;;;;;;25.00;21.00;;;;;;;;5037749;28;45328;-67
2022/04/22 15:24:09;;;;;;;;;22.00;20.33;;;;;;;;5037419;28;45374;-67
2022/04/22 15:26:35;;;;;;;;;21.67;18.00;;;;;;;;5037186;28;45586;-67
2022/04/22 15:29:02;;;;;;;;;19.67;18.33;;;;;;;;5036958;28;45914;-69
2022/04/22 15:31:27;;;;;;;;;25.33;19.00;;;;;;;;5037546;28;45303;-67